sensor_id;sensor_type;location;lat;lon;timestamp;pressure;altitude;pressure_sealevel;temperature;humidity
41306;BME280;27051;50.376;19.152;2023-07-29T00:00:03;97587.83;;;18.47;70.95
41306;BME280;27051;50.376;19.152;2023-07-29T00:02:30;97588.50;;;18.50;71.13
41306;BME280;27051;50.376;19.152;2023-07-29T00:04:57;97595.61;;;18.55;71.43
41306;BME280;27051;50.376;19.152;2023-07-29T00:07:23;97590.52;;;18.50;71.68
41306;BME280;27051;50.376;19.152;2023-07-29T00:09:49;97590.73;;;18.51;72.08
41306;BME280;27051;50.376;19.152;2023-07-29T00:12:16;97588.88;;;18.51;71.95
41306;BME280;27051;50.376;19.152;2023-07-29T00:14:42;97584.65;;;18.54;72.28
41306;BME280;27051;50.376;19.152;2023-07-29T00:17:11;97585.11;;;18.61;72.10
41306;BME280;27051;50.376;19.152;2023-07-29T00:19:38;97585.19;;;18.62;71.73
41306;BME280;27051;50.376;19.152;2023-07-29T00:22:05;97585.46;;;18.59;71.55
41306;BME280;27051;50.376;19.152;2023-07-29T00:24:31;97587.13;;;18.55;71.27
41306;BME280;27051;50.376;19.152;2023-07-29T00:26:57;97583.80;;;18.45;71.62
41306;BME280;27051;50.376;19.152;2023-07-29T00:29:24;97580.16;;;18.44;71.60
41306;BME280;27051;50.376;19.152;2023-07-29T00:31:50;97576.59;;;18.43;71.56
41306;BME280;27051;50.376;19.152;2023-07-29T00:34:17;97579.11;;;18.48;71.42
41306;BME280;27051;50.376;19.152;2023-07-29T00:36:44;97575.36;;;18.42;71.22
41306;BME280;27051;50.376;19.152;2023-07-29T00:39:10;97573.55;;;18.37;71.38
41306;BME280;27051;50.376;19.152;2023-07-29T00:41:37;97574.59;;;18.33;71.47
41306;BME280;27051;50.376;19.152;2023-07-29T00:44:04;97568.76;;;18.33;71.71
41306;BME280;27051;50.376;19.152;2023-07-29T00:46:53;97568.53;;;18.32;71.59
41306;BME280;27051;50.376;19.152;2023-07-29T00:49:21;97567.83;;;18.33;71.74
41306;BME280;27051;50.376;19.152;2023-07-29T00:51:48;97574.98;;;18.41;71.85
41306;BME280;27051;50.376;19.152;2023-07-29T00:54:14;97577.35;;;18.45;72.33
41306;BME280;27051;50.376;19.152;2023-07-29T00:56:41;97569.38;;;18.50;72.52
41306;BME280;27051;50.376;19.152;2023-07-29T00:59:10;97558.13;;;18.47;72.63
41306;BME280;27051;50.376;19.152;2023-07-29T01:01:37;97563.86;;;18.50;72.63
41306;BME280;27051;50.376;19.152;2023-07-29T01:04:04;97564.54;;;18.51;72.45
41306;BME280;27051;50.376;19.152;2023-07-29T01:09:43;97566.94;;;18.60;72.14
41306;BME280;27051;50.376;19.152;2023-07-29T01:15:04;97565.46;;;18.60;72.79
41306;BME280;27051;50.376;19.152;2023-07-29T01:17:43;97565.09;;;18.65;73.05
41306;BME280;27051;50.376;19.152;2023-07-29T01:20:16;97562.42;;;18.68;72.88
41306;BME280;27051;50.376;19.152;2023-07-29T01:22:43;97567.11;;;18.72;72.81
41306;BME280;27051;50.376;19.152;2023-07-29T01:25:10;97560.57;;;18.76;72.96
41306;BME280;27051;50.376;19.152;2023-07-29T01:27:36;97562.32;;;18.80;73.16
41306;BME280;27051;50.376;19.152;2023-07-29T01:30:04;97556.48;;;18.80;73.28
41306;BME280;27051;50.376;19.152;2023-07-29T01:32:43;97560.67;;;18.87;73.19
41306;BME280;27051;50.376;19.152;2023-07-29T01:37:47;97565.27;;;19.01;73.14
41306;BME280;27051;50.376;19.152;2023-07-29T01:40:14;97568.02;;;19.04;73.06
41306;BME280;27051;50.376;19.152;2023-07-29T01:42:41;97565.30;;;19.05;73.12
41306;BME280;27051;50.376;19.152;2023-07-29T01:45:08;97564.77;;;19.04;72.91
41306;BME280;27051;50.376;19.152;2023-07-29T01:47:35;97563.83;;;18.97;72.74
41306;BME280;27051;50.376;19.152;2023-07-29T01:50:02;97564.98;;;18.99;72.87
41306;BME280;27051;50.376;19.152;2023-07-29T01:52:28;97566.06;;;18.99;72.90
41306;BME280;27051;50.376;19.152;2023-07-29T01:54:55;97568.01;;;19.04;73.00
41306;BME280;27051;50.376;19.152;2023-07-29T01:57:22;97572.95;;;19.08;73.14
41306;BME280;27051;50.376;19.152;2023-07-29T01:59:48;97576.52;;;19.10;72.90
41306;BME280;27051;50.376;19.152;2023-07-29T02:02:15;97578.20;;;19.05;72.77
41306;BME280;27051;50.376;19.152;2023-07-29T02:04:41;97576.67;;;18.97;72.76
41306;BME280;27051;50.376;19.152;2023-07-29T02:07:08;97582.29;;;18.95;72.72
41306;BME280;27051;50.376;19.152;2023-07-29T02:09:35;97586.35;;;18.94;72.69
41306;BME280;27051;50.376;19.152;2023-07-29T02:12:01;97585.67;;;18.99;72.73
41306;BME280;27051;50.376;19.152;2023-07-29T02:14:28;97583.94;;;19.00;72.45
41306;BME280;27051;50.376;19.152;2023-07-29T02:16:55;97583.13;;;18.96;72.55
41306;BME280;27051;50.376;19.152;2023-07-29T02:19:21;97578.23;;;18.90;72.47
41306;BME280;27051;50.376;19.152;2023-07-29T02:21:47;97580.77;;;18.80;72.65
41306;BME280;27051;50.376;19.152;2023-07-29T02:24:14;97581.63;;;18.78;72.72
41306;BME280;27051;50.376;19.152;2023-07-29T02:26:41;97578.13;;;18.78;72.73
41306;BME280;27051;50.376;19.152;2023-07-29T02:29:08;97582.65;;;18.83;72.77
41306;BME280;27051;50.376;19.152;2023-07-29T02:31:34;97587.23;;;18.85;72.94
41306;BME280;27051;50.376;19.152;2023-07-29T02:34:01;97585.08;;;18.83;72.89
41306;BME280;27051;50.376;19.152;2023-07-29T02:36:27;97585.83;;;18.78;73.32
41306;BME280;27051;50.376;19.152;2023-07-29T02:39:03;97590.92;;;18.81;73.23
41306;BME280;27051;50.376;19.152;2023-07-29T02:41:29;97591.73;;;18.85;73.53
41306;BME280;27051;50.376;19.152;2023-07-29T02:43:56;97595.99;;;18.94;73.65
41306;BME280;27051;50.376;19.152;2023-07-29T02:46:25;97594.25;;;18.97;73.80
41306;BME280;27051;50.376;19.152;2023-07-29T02:48:51;97594.79;;;18.97;73.69
41306;BME280;27051;50.376;19.152;2023-07-29T02:51:17;97591.44;;;18.92;73.83
41306;BME280;27051;50.376;19.152;2023-07-29T02:53:44;97592.27;;;18.94;73.69
41306;BME280;27051;50.376;19.152;2023-07-29T02:56:11;97594.45;;;18.93;73.92
41306;BME280;27051;50.376;19.152;2023-07-29T02:58:38;97602.02;;;18.98;73.82
41306;BME280;27051;50.376;19.152;2023-07-29T03:01:06;97605.14;;;18.96;73.65
41306;BME280;27051;50.376;19.152;2023-07-29T03:03:32;97604.84;;;18.96;73.77
41306;BME280;27051;50.376;19.152;2023-07-29T03:06:05;97595.49;;;18.91;74.02
41306;BME280;27051;50.376;19.152;2023-07-29T03:08:32;97597.25;;;18.93;73.88
41306;BME280;27051;50.376;19.152;2023-07-29T03:11:05;97599.16;;;18.90;73.59
41306;BME280;27051;50.376;19.152;2023-07-29T03:13:32;97601.68;;;18.93;73.68
41306;BME280;27051;50.376;19.152;2023-07-29T03:16:13;97606.75;;;18.93;73.54
41306;BME280;27051;50.376;19.152;2023-07-29T03:18:40;97604.66;;;18.92;73.64
41306;BME280;27051;50.376;19.152;2023-07-29T03:21:08;97604.77;;;18.88;73.37
41306;BME280;27051;50.376;19.152;2023-07-29T03:23:35;97602.57;;;18.76;73.36
41306;BME280;27051;50.376;19.152;2023-07-29T03:26:03;97604.13;;;18.74;73.51
41306;BME280;27051;50.376;19.152;2023-07-29T03:28:32;97605.47;;;18.72;73.50
41306;BME280;27051;50.376;19.152;2023-07-29T03:30:59;97608.48;;;18.74;73.64
41306;BME280;27051;50.376;19.152;2023-07-29T03:33:26;97614.78;;;18.75;74.02
41306;BME280;27051;50.376;19.152;2023-07-29T03:35:52;97614.70;;;18.76;73.99
41306;BME280;27051;50.376;19.152;2023-07-29T03:38:19;97613.67;;;18.69;74.00
41306;BME280;27051;50.376;19.152;2023-07-29T03:40:46;97611.73;;;18.66;74.15
41306;BME280;27051;50.376;19.152;2023-07-29T03:43:12;97617.66;;;18.65;74.11
41306;BME280;27051;50.376;19.152;2023-07-29T03:45:40;97618.27;;;18.72;74.07
41306;BME280;27051;50.376;19.152;2023-07-29T03:48:09;97614.17;;;18.72;73.96
41306;BME280;27051;50.376;19.152;2023-07-29T03:50:38;97614.00;;;18.74;74.06
41306;BME280;27051;50.376;19.152;2023-07-29T03:53:05;97611.00;;;18.71;74.32
41306;BME280;27051;50.376;19.152;2023-07-29T03:55:32;97612.77;;;18.73;74.29
41306;BME280;27051;50.376;19.152;2023-07-29T03:57:59;97615.47;;;18.74;74.13
41306;BME280;27051;50.376;19.152;2023-07-29T04:00:27;97615.64;;;18.82;74.11
41306;BME280;27051;50.376;19.152;2023-07-29T04:02:53;97619.07;;;18.90;74.14
41306;BME280;27051;50.376;19.152;2023-07-29T04:05:20;97622.55;;;18.92;73.98
41306;BME280;27051;50.376;19.152;2023-07-29T04:07:47;97621.67;;;18.94;74.09
41306;BME280;27051;50.376;19.152;2023-07-29T04:10:13;97619.38;;;18.91;74.15
41306;BME280;27051;50.376;19.152;2023-07-29T04:12:43;97619.34;;;18.95;74.17
41306;BME280;27051;50.376;19.152;2023-07-29T04:15:10;97619.19;;;19.00;74.26
41306;BME280;27051;50.376;19.152;2023-07-29T04:17:36;97625.85;;;19.10;74.14
41306;BME280;27051;50.376;19.152;2023-07-29T04:20:03;97626.69;;;19.12;74.00
41306;BME280;27051;50.376;19.152;2023-07-29T04:22:30;97630.95;;;19.20;74.46
41306;BME280;27051;50.376;19.152;2023-07-29T04:24:57;97625.33;;;19.21;74.48
41306;BME280;27051;50.376;19.152;2023-07-29T04:27:23;97628.89;;;19.30;74.79
41306;BME280;27051;50.376;19.152;2023-07-29T04:29:53;97626.39;;;19.36;74.81
41306;BME280;27051;50.376;19.152;2023-07-29T04:32:20;97632.00;;;19.47;74.67
41306;BME280;27051;50.376;19.152;2023-07-29T04:34:55;97631.50;;;19.51;74.53
41306;BME280;27051;50.376;19.152;2023-07-29T04:37:22;97633.88;;;19.54;74.62
41306;BME280;27051;50.376;19.152;2023-07-29T04:39:51;97633.98;;;19.51;74.84
41306;BME280;27051;50.376;19.152;2023-07-29T04:42:21;97633.51;;;19.51;74.64
41306;BME280;27051;50.376;19.152;2023-07-29T04:44:47;97631.95;;;19.51;74.72
41306;BME280;27051;50.376;19.152;2023-07-29T04:47:19;97634.55;;;19.56;74.56
41306;BME280;27051;50.376;19.152;2023-07-29T04:52:26;97635.00;;;19.57;74.73
41306;BME280;27051;50.376;19.152;2023-07-29T04:54:52;97631.39;;;19.53;74.94
41306;BME280;27051;50.376;19.152;2023-07-29T04:57:29;97632.73;;;19.58;74.84
41306;BME280;27051;50.376;19.152;2023-07-29T04:59:56;97634.91;;;19.64;74.94
41306;BME280;27051;50.376;19.152;2023-07-29T05:02:23;97636.96;;;19.75;75.07
41306;BME280;27051;50.376;19.152;2023-07-29T05:04:52;97639.89;;;19.93;74.90
41306;BME280;27051;50.376;19.152;2023-07-29T05:07:19;97641.89;;;20.05;74.74
41306;BME280;27051;50.376;19.152;2023-07-29T05:09:46;97643.22;;;20.16;74.65
41306;BME280;27051;50.376;19.152;2023-07-29T05:12:16;97640.55;;;20.17;74.55
41306;BME280;27051;50.376;19.152;2023-07-29T05:14:51;97642.45;;;20.25;74.40
41306;BME280;27051;50.376;19.152;2023-07-29T05:17:21;97643.37;;;20.36;74.15
41306;BME280;27051;50.376;19.152;2023-07-29T05:19:48;97645.61;;;20.52;74.08
41306;BME280;27051;50.376;19.152;2023-07-29T05:22:17;97648.74;;;20.61;74.15
41306;BME280;27051;50.376;19.152;2023-07-29T05:24:44;97656.13;;;20.68;73.77
41306;BME280;27051;50.376;19.152;2023-07-29T05:27:13;97652.29;;;20.59;73.67
41306;BME280;27051;50.376;19.152;2023-07-29T05:29:40;97651.64;;;20.56;73.62
41306;BME280;27051;50.376;19.152;2023-07-29T05:32:07;97652.50;;;20.56;73.62
41306;BME280;27051;50.376;19.152;2023-07-29T05:34:34;97659.38;;;20.65;73.57
41306;BME280;27051;50.376;19.152;2023-07-29T05:37:00;97661.10;;;20.69;73.51
41306;BME280;27051;50.376;19.152;2023-07-29T05:39:30;97661.30;;;20.71;73.55
41306;BME280;27051;50.376;19.152;2023-07-29T05:41:57;97657.16;;;20.70;73.68
41306;BME280;27051;50.376;19.152;2023-07-29T05:44:23;97658.09;;;20.76;73.57
41306;BME280;27051;50.376;19.152;2023-07-29T05:46:50;97659.73;;;20.84;73.49
41306;BME280;27051;50.376;19.152;2023-07-29T05:49:17;97663.91;;;20.90;73.39
41306;BME280;27051;50.376;19.152;2023-07-29T05:51:44;97658.04;;;20.91;73.17
41306;BME280;27051;50.376;19.152;2023-07-29T05:54:10;97657.11;;;20.95;73.20
41306;BME280;27051;50.376;19.152;2023-07-29T05:56:37;97652.75;;;20.90;73.24
41306;BME280;27051;50.376;19.152;2023-07-29T05:59:04;97654.03;;;20.93;73.25
41306;BME280;27051;50.376;19.152;2023-07-29T06:01:40;97660.61;;;21.00;73.34
41306;BME280;27051;50.376;19.152;2023-07-29T06:04:06;97668.68;;;21.15;73.30
41306;BME280;27051;50.376;19.152;2023-07-29T06:06:33;97672.48;;;21.24;73.19
41306;BME280;27051;50.376;19.152;2023-07-29T06:09:00;97678.41;;;21.33;73.13
41306;BME280;27051;50.376;19.152;2023-07-29T06:11:26;97672.15;;;21.34;73.08
41306;BME280;27051;50.376;19.152;2023-07-29T06:13:53;97675.11;;;21.39;72.63
41306;BME280;27051;50.376;19.152;2023-07-29T06:16:19;97682.59;;;21.48;72.10
41306;BME280;27051;50.376;19.152;2023-07-29T06:18:48;97677.30;;;21.52;72.17
41306;BME280;27051;50.376;19.152;2023-07-29T06:21:18;97678.07;;;21.63;72.49
41306;BME280;27051;50.376;19.152;2023-07-29T06:23:47;97681.09;;;21.79;72.26
41306;BME280;27051;50.376;19.152;2023-07-29T06:26:14;97681.46;;;21.87;72.31
41306;BME280;27051;50.376;19.152;2023-07-29T06:28:41;97680.94;;;22.00;71.80
41306;BME280;27051;50.376;19.152;2023-07-29T06:31:08;97680.40;;;22.14;71.53
41306;BME280;27051;50.376;19.152;2023-07-29T06:33:34;97687.50;;;22.25;71.04
41306;BME280;27051;50.376;19.152;2023-07-29T06:36:01;97685.73;;;22.28;70.91
41306;BME280;27051;50.376;19.152;2023-07-29T06:38:28;97688.70;;;22.41;71.25
41306;BME280;27051;50.376;19.152;2023-07-29T06:40:55;97690.38;;;22.53;70.59
41306;BME280;27051;50.376;19.152;2023-07-29T06:43:24;97688.44;;;22.62;70.53
41306;BME280;27051;50.376;19.152;2023-07-29T06:48:28;97684.88;;;22.79;69.80
41306;BME280;27051;50.376;19.152;2023-07-29T06:50:54;97688.95;;;22.98;70.15
41306;BME280;27051;50.376;19.152;2023-07-29T06:53:21;97686.16;;;23.21;69.97
41306;BME280;27051;50.376;19.152;2023-07-29T06:55:50;97684.02;;;23.38;69.32
41306;BME280;27051;50.376;19.152;2023-07-29T06:58:27;97678.67;;;23.53;69.05
41306;BME280;27051;50.376;19.152;2023-07-29T07:00:53;97674.85;;;23.55;68.37
41306;BME280;27051;50.376;19.152;2023-07-29T07:03:28;97677.31;;;23.59;68.11
41306;BME280;27051;50.376;19.152;2023-07-29T07:05:54;97675.23;;;23.64;67.68
41306;BME280;27051;50.376;19.152;2023-07-29T07:08:21;97670.67;;;23.53;67.61
41306;BME280;27051;50.376;19.152;2023-07-29T07:10:48;97672.38;;;23.48;67.54
41306;BME280;27051;50.376;19.152;2023-07-29T07:13:15;97681.88;;;23.51;67.15
41306;BME280;27051;50.376;19.152;2023-07-29T07:16:01;97684.08;;;23.55;67.62
41306;BME280;27051;50.376;19.152;2023-07-29T07:18:28;97683.48;;;23.66;66.95
41306;BME280;27051;50.376;19.152;2023-07-29T07:20:55;97687.84;;;23.73;66.99
41306;BME280;27051;50.376;19.152;2023-07-29T07:23:41;97692.55;;;23.84;66.74
41306;BME280;27051;50.376;19.152;2023-07-29T07:28:47;97680.02;;;23.99;66.02
41306;BME280;27051;50.376;19.152;2023-07-29T07:31:14;97676.17;;;24.14;66.48
41306;BME280;27051;50.376;19.152;2023-07-29T07:33:40;97679.68;;;24.43;65.59
41306;BME280;27051;50.376;19.152;2023-07-29T07:36:07;97683.05;;;24.62;65.34
41306;BME280;27051;50.376;19.152;2023-07-29T07:38:34;97679.67;;;24.72;64.40
41306;BME280;27051;50.376;19.152;2023-07-29T07:41:00;97675.77;;;24.79;64.07
41306;BME280;27051;50.376;19.152;2023-07-29T07:43:27;97677.50;;;24.97;64.44
41306;BME280;27051;50.376;19.152;2023-07-29T07:46:01;97677.50;;;25.08;63.78
41306;BME280;27051;50.376;19.152;2023-07-29T07:48:28;97677.40;;;25.27;63.62
41306;BME280;27051;50.376;19.152;2023-07-29T07:50:54;97678.56;;;25.47;62.99
41306;BME280;27051;50.376;19.152;2023-07-29T07:53:24;97675.63;;;25.74;62.80
41306;BME280;27051;50.376;19.152;2023-07-29T07:55:51;97677.62;;;26.01;62.56
41306;BME280;27051;50.376;19.152;2023-07-29T07:58:17;97674.59;;;26.24;61.86
41306;BME280;27051;50.376;19.152;2023-07-29T08:00:46;97671.44;;;26.38;61.08
41306;BME280;27051;50.376;19.152;2023-07-29T08:03:13;97672.57;;;26.41;60.50
41306;BME280;27051;50.376;19.152;2023-07-29T08:05:40;97671.84;;;26.32;60.33
41306;BME280;27051;50.376;19.152;2023-07-29T08:08:06;97673.49;;;26.12;59.53
41306;BME280;27051;50.376;19.152;2023-07-29T08:10:33;97670.39;;;25.94;60.11
41306;BME280;27051;50.376;19.152;2023-07-29T08:13:00;97668.85;;;25.85;59.96
41306;BME280;27051;50.376;19.152;2023-07-29T08:15:26;97665.52;;;25.83;60.09
41306;BME280;27051;50.376;19.152;2023-07-29T08:17:53;97666.48;;;25.89;59.43
41306;BME280;27051;50.376;19.152;2023-07-29T08:20:20;97662.96;;;26.03;59.39
41306;BME280;27051;50.376;19.152;2023-07-29T08:22:46;97664.28;;;26.12;59.42
41306;BME280;27051;50.376;19.152;2023-07-29T08:25:13;97668.79;;;26.15;58.97
41306;BME280;27051;50.376;19.152;2023-07-29T08:27:40;97670.45;;;26.17;58.39
41306;BME280;27051;50.376;19.152;2023-07-29T08:30:07;97666.80;;;26.22;58.33
41306;BME280;27051;50.376;19.152;2023-07-29T08:32:34;97670.05;;;26.35;58.70
41306;BME280;27051;50.376;19.152;2023-07-29T08:35:09;97668.20;;;26.60;58.18
41306;BME280;27051;50.376;19.152;2023-07-29T08:37:36;97668.75;;;26.90;57.67
41306;BME280;27051;50.376;19.152;2023-07-29T08:40:02;97664.42;;;27.12;56.59
41306;BME280;27051;50.376;19.152;2023-07-29T08:42:31;97660.27;;;27.28;55.25
41306;BME280;27051;50.376;19.152;2023-07-29T08:45:04;97654.88;;;27.39;54.95
41306;BME280;27051;50.376;19.152;2023-07-29T08:47:41;97655.31;;;27.51;54.77
41306;BME280;27051;50.376;19.152;2023-07-29T08:50:11;97659.45;;;27.50;55.01
41306;BME280;27051;50.376;19.152;2023-07-29T08:52:39;97659.73;;;27.47;54.82
41306;BME280;27051;50.376;19.152;2023-07-29T08:55:07;97658.34;;;27.57;54.70
41306;BME280;27051;50.376;19.152;2023-07-29T08:57:34;97653.54;;;27.87;54.77
41306;BME280;27051;50.376;19.152;2023-07-29T09:00:01;97651.22;;;28.12;52.98
41306;BME280;27051;50.376;19.152;2023-07-29T09:02:28;97650.59;;;28.21;51.52
41306;BME280;27051;50.376;19.152;2023-07-29T09:04:55;97644.58;;;28.23;51.86
41306;BME280;27051;50.376;19.152;2023-07-29T09:07:21;97645.27;;;28.36;52.85
41306;BME280;27051;50.376;19.152;2023-07-29T09:09:51;97644.72;;;28.46;52.56
41306;BME280;27051;50.376;19.152;2023-07-29T09:12:18;97644.52;;;28.60;51.81
41306;BME280;27051;50.376;19.152;2023-07-29T09:14:45;97639.33;;;28.76;51.78
41306;BME280;27051;50.376;19.152;2023-07-29T09:17:12;97639.03;;;28.95;50.61
41306;BME280;27051;50.376;19.152;2023-07-29T09:19:40;97641.78;;;29.05;49.20
41306;BME280;27051;50.376;19.152;2023-07-29T09:22:20;97634.19;;;29.20;49.35
41306;BME280;27051;50.376;19.152;2023-07-29T09:24:47;97630.77;;;29.47;49.03
41306;BME280;27051;50.376;19.152;2023-07-29T09:27:26;97632.17;;;29.76;48.51
41306;BME280;27051;50.376;19.152;2023-07-29T09:29:55;97629.51;;;30.14;47.82
41306;BME280;27051;50.376;19.152;2023-07-29T09:32:23;97630.20;;;30.45;46.66
41306;BME280;27051;50.376;19.152;2023-07-29T09:34:49;97631.52;;;30.96;47.06
41306;BME280;27051;50.376;19.152;2023-07-29T09:39:45;97625.80;;;32.03;43.96
41306;BME280;27051;50.376;19.152;2023-07-29T09:42:17;97620.89;;;32.37;43.45
41306;BME280;27051;50.376;19.152;2023-07-29T09:44:44;97618.42;;;32.88;42.90
41306;BME280;27051;50.376;19.152;2023-07-29T09:47:22;97615.08;;;33.18;42.14
41306;BME280;27051;50.376;19.152;2023-07-29T09:49:50;97614.23;;;33.52;42.50
41306;BME280;27051;50.376;19.152;2023-07-29T09:52:18;97613.18;;;33.72;41.53
41306;BME280;27051;50.376;19.152;2023-07-29T09:54:45;97617.89;;;33.64;40.57
41306;BME280;27051;50.376;19.152;2023-07-29T09:57:16;97619.73;;;33.24;40.54
41306;BME280;27051;50.376;19.152;2023-07-29T09:59:54;97617.86;;;33.32;40.46
41306;BME280;27051;50.376;19.152;2023-07-29T10:02:24;97613.45;;;33.03;40.40
41306;BME280;27051;50.376;19.152;2023-07-29T10:04:51;97611.06;;;33.16;40.57
41306;BME280;27051;50.376;19.152;2023-07-29T10:07:19;97610.89;;;33.45;39.94
41306;BME280;27051;50.376;19.152;2023-07-29T10:09:46;97606.41;;;33.92;39.52
41306;BME280;27051;50.376;19.152;2023-07-29T10:12:15;97603.95;;;34.33;38.61
41306;BME280;27051;50.376;19.152;2023-07-29T10:14:42;97593.81;;;34.70;38.97
41306;BME280;27051;50.376;19.152;2023-07-29T10:17:10;97595.84;;;34.98;37.57
41306;BME280;27051;50.376;19.152;2023-07-29T10:19:37;97587.67;;;34.56;37.57
41306;BME280;27051;50.376;19.152;2023-07-29T10:22:04;97589.06;;;34.10;37.40
41306;BME280;27051;50.376;19.152;2023-07-29T10:24:32;97588.35;;;34.01;36.06
41306;BME280;27051;50.376;19.152;2023-07-29T10:27:01;97592.52;;;33.95;35.99
41306;BME280;27051;50.376;19.152;2023-07-29T10:29:31;97589.98;;;34.11;36.44
41306;BME280;27051;50.376;19.152;2023-07-29T10:31:58;97589.23;;;34.60;35.78
41306;BME280;27051;50.376;19.152;2023-07-29T10:34:27;97589.73;;;35.04;35.97
41306;BME280;27051;50.376;19.152;2023-07-29T10:36:54;97588.15;;;35.54;35.23
41306;BME280;27051;50.376;19.152;2023-07-29T10:39:20;97588.54;;;35.85;35.07
41306;BME280;27051;50.376;19.152;2023-07-29T10:41:58;97588.40;;;36.14;34.66
41306;BME280;27051;50.376;19.152;2023-07-29T10:47:23;97580.64;;;36.18;34.08
41306;BME280;27051;50.376;19.152;2023-07-29T10:49:52;97584.68;;;36.59;33.59
41306;BME280;27051;50.376;19.152;2023-07-29T10:52:39;97580.20;;;36.54;32.64
41306;BME280;27051;50.376;19.152;2023-07-29T10:55:27;97582.09;;;36.85;33.30
41306;BME280;27051;50.376;19.152;2023-07-29T10:58:07;97585.30;;;37.24;32.08
41306;BME280;27051;50.376;19.152;2023-07-29T11:00:34;97580.25;;;37.50;31.45
41306;BME280;27051;50.376;19.152;2023-07-29T11:03:08;97579.45;;;37.88;31.50
41306;BME280;27051;50.376;19.152;2023-07-29T11:08:21;97573.75;;;38.84;30.74
41306;BME280;27051;50.376;19.152;2023-07-29T11:11:06;97572.00;;;39.27;29.30
41306;BME280;27051;50.376;19.152;2023-07-29T11:13:37;97570.92;;;39.67;29.69
41306;BME280;27051;50.376;19.152;2023-07-29T11:16:05;97566.88;;;40.11;29.20
41306;BME280;27051;50.376;19.152;2023-07-29T11:18:33;97570.75;;;40.56;28.47
41306;BME280;27051;50.376;19.152;2023-07-29T11:21:01;97571.08;;;40.39;28.60
41306;BME280;27051;50.376;19.152;2023-07-29T11:23:33;97564.90;;;39.78;28.72
41306;BME280;27051;50.376;19.152;2023-07-29T11:26:00;97560.89;;;39.95;27.97
41306;BME280;27051;50.376;19.152;2023-07-29T11:28:27;97558.35;;;40.16;27.59
41306;BME280;27051;50.376;19.152;2023-07-29T11:30:55;97558.27;;;40.23;26.67
41306;BME280;27051;50.376;19.152;2023-07-29T11:33:24;97556.77;;;40.16;26.92
41306;BME280;27051;50.376;19.152;2023-07-29T11:35:51;97553.73;;;40.43;27.27
41306;BME280;27051;50.376;19.152;2023-07-29T11:38:19;97548.06;;;40.93;26.24
41306;BME280;27051;50.376;19.152;2023-07-29T11:40:58;97542.98;;;41.40;26.34
41306;BME280;27051;50.376;19.152;2023-07-29T11:43:25;97537.05;;;42.02;25.72
41306;BME280;27051;50.376;19.152;2023-07-29T11:45:52;97534.30;;;42.42;25.38
41306;BME280;27051;50.376;19.152;2023-07-29T11:48:33;97533.40;;;42.72;24.63
41306;BME280;27051;50.376;19.152;2023-07-29T11:51:00;97537.51;;;42.99;24.07
41306;BME280;27051;50.376;19.152;2023-07-29T11:53:30;97531.27;;;43.33;23.80
41306;BME280;27051;50.376;19.152;2023-07-29T11:55:57;97532.04;;;43.97;23.75
41306;BME280;27051;50.376;19.152;2023-07-29T11:58:24;97529.83;;;44.45;23.10
41306;BME280;27051;50.376;19.152;2023-07-29T12:00:52;97523.88;;;44.87;22.34
41306;BME280;27051;50.376;19.152;2023-07-29T12:03:18;97530.98;;;45.07;21.81
41306;BME280;27051;50.376;19.152;2023-07-29T12:05:45;97526.86;;;44.98;21.93
41306;BME280;27051;50.376;19.152;2023-07-29T12:08:12;97516.60;;;45.34;22.01
41306;BME280;27051;50.376;19.152;2023-07-29T12:10:39;97513.91;;;45.76;21.67
41306;BME280;27051;50.376;19.152;2023-07-29T12:13:07;97517.95;;;45.33;21.42
41306;BME280;27051;50.376;19.152;2023-07-29T12:15:34;97513.09;;;44.63;21.55
41306;BME280;27051;50.376;19.152;2023-07-29T12:18:01;97516.38;;;44.85;21.32
41306;BME280;27051;50.376;19.152;2023-07-29T12:20:29;97516.63;;;45.34;20.58
41306;BME280;27051;50.376;19.152;2023-07-29T12:22:57;97512.46;;;45.83;20.61
41306;BME280;27051;50.376;19.152;2023-07-29T12:25:25;97509.09;;;46.54;20.62
41306;BME280;27051;50.376;19.152;2023-07-29T12:27:51;97509.61;;;47.41;20.51
41306;BME280;27051;50.376;19.152;2023-07-29T12:30:24;97506.54;;;48.22;19.44
41306;BME280;27051;50.376;19.152;2023-07-29T12:32:50;97500.83;;;48.36;18.53
41306;BME280;27051;50.376;19.152;2023-07-29T12:35:17;97495.20;;;47.90;19.01
41306;BME280;27051;50.376;19.152;2023-07-29T12:37:43;97493.11;;;47.29;18.23
41306;BME280;27051;50.376;19.152;2023-07-29T12:40:23;97492.27;;;47.37;18.31
41306;BME280;27051;50.376;19.152;2023-07-29T12:42:51;97493.82;;;46.34;18.59
41306;BME280;27051;50.376;19.152;2023-07-29T12:45:17;97490.02;;;44.67;18.90
41306;BME280;27051;50.376;19.152;2023-07-29T12:47:44;97491.23;;;44.77;19.10
41306;BME280;27051;50.376;19.152;2023-07-29T12:50:11;97491.52;;;45.36;19.13
41306;BME280;27051;50.376;19.152;2023-07-29T12:52:37;97478.20;;;46.06;19.05
41306;BME280;27051;50.376;19.152;2023-07-29T12:55:05;97478.96;;;47.01;19.30
41306;BME280;27051;50.376;19.152;2023-07-29T12:57:31;97480.85;;;47.45;18.07
41306;BME280;27051;50.376;19.152;2023-07-29T12:59:58;97473.73;;;46.40;18.99
41306;BME280;27051;50.376;19.152;2023-07-29T13:02:24;97472.96;;;46.68;19.12
41306;BME280;27051;50.376;19.152;2023-07-29T13:04:50;97475.27;;;47.34;18.90
41306;BME280;27051;50.376;19.152;2023-07-29T13:07:17;97475.11;;;46.88;18.54
41306;BME280;27051;50.376;19.152;2023-07-29T13:09:43;97471.29;;;45.26;19.02
41306;BME280;27051;50.376;19.152;2023-07-29T13:12:10;97467.02;;;45.09;19.38
41306;BME280;27051;50.376;19.152;2023-07-29T13:14:36;97473.19;;;45.83;19.22
41306;BME280;27051;50.376;19.152;2023-07-29T13:17:02;97466.87;;;46.35;19.03
41306;BME280;27051;50.376;19.152;2023-07-29T13:19:29;97468.67;;;46.61;19.14